• Join FlightAware (Why Join?)
  • Login
  • US Flag 
10:00PM EDT


 

Airport Tracker/Info


-or-


 

Live Flight TrackerFlight Track Log ✈ DAL268 ✈ 03-Aug-2013 ✈ KJFK - LLBG / TLV

Flight Track Log - Related Links

Times and Time Zones

All times are in EDT time to prevent confusion due to time zone crossing. See the DAL268 flight status page for this flight to view local times or setup timezone preferences in your user account.

Time Position Orientation Groundspeed Altitude Reporting Facility
EDT Latitude Longitude Course Direction KTS MPH feet Rate Location/Type
12:11AM 40.6320 -73.7710 201° Southwest 96 110  Level FlightAware
12:11AM 40.6240 -73.7770 210° Southwest 150 173 900 Level FlightAware
12:11AM 40.6170 -73.7820 208° Southwest 175 201 1,320 Level FlightAware
12:12AM 40.5990 -73.7970 212° Southwest 183 211 800 1,680 Climbing FlightAware
12:12AM 40.5830 -73.8070 205° Southwest 191 220 1,300 1,620 Climbing FlightAware
12:12AM 40.5680 -73.8170 207° Southwest 190 219 1,900 1,260 Climbing FlightAware
12:13AM 40.5520 -73.8250 201° Southwest 202 232 2,100 780 Climbing FlightAware
12:13AM 40.5490 -73.8250 180° South 203 234 2,200 1,020 Climbing FlightAware
12:13AM 40.5270 -73.8150 161° South 212 244 2,600 780 Climbing FlightAware
12:13AM 40.5210 -73.8020 121° Southeast 213 245 2,700 900 Climbing FlightAware
12:13AM 40.5190 -73.7920 105° East 211 243 2,900 1,140 Climbing FlightAware
12:14AM 40.5220 -73.7560 84° East 215 247 3,400 960 Climbing FlightAware
12:14AM 40.5260 -73.7300 79° East 225 259 3,700 780 Climbing FlightAware
12:15AM 40.5300 -73.7050 78° East 235 270 3,900 780 Climbing FlightAware
12:15AM 40.5341 -73.6788 78° East 233 268 4,200 900 Climbing FlightAware ADS-B
12:15AM 40.5375 -73.6559 79° East 257 296 4,400 900 Climbing FlightAware ADS-B
12:15AM 40.5384 -73.6477 82° East 265 305 4,500 600 Climbing FlightAware ADS-B
12:15AM 40.5375 -73.6254 93° East 275 316 4,600 900 Climbing FlightAware ADS-B
12:16AM 40.5311 -73.5960 106° East 283 326 5,000 1,260 Climbing FlightAware ADS-B
12:16AM 40.5254 -73.5703 106° East 297 342 5,300 1,500 Climbing FlightAware ADS-B
12:16AM 40.5187 -73.5407 107° East 302 348 5,800 1,860 Climbing FlightAware ADS-B
12:16AM 40.5118 -73.5128 108° East 306 352 6,300 2,040 Climbing FlightAware ADS-B
12:17AM 40.5046 -73.4844 108° East 311 358 6,900 2,100 Climbing FlightAware ADS-B
12:17AM 40.4974 -73.4574 109° East 312 359 7,400 2,100 Climbing FlightAware ADS-B
12:17AM 40.4898 -73.4286 109° East 314 361 8,000 2,040 Climbing FlightAware ADS-B
12:18AM 40.4823 -73.4002 109° East 318 366 8,500 1,800 Climbing FlightAware ADS-B
12:18AM 40.4740 -73.3688 109° East 324 373 9,000 1,800 Climbing FlightAware ADS-B
12:18AM 40.4661 -73.3387 109° East 329 379 9,500 1,800 Climbing FlightAware ADS-B
12:18AM 40.4579 -73.3067 109° East 332 382 10,000 1,200 Climbing FlightAware ADS-B
12:19AM 40.4423 -73.2463 109° East 353 406 10,500 960 Climbing FlightAware ADS-B
12:19AM 40.4258 -73.1826 109° East 377 434 11,000 960 Climbing FlightAware ADS-B
12:20AM 40.4073 -73.1116 109° East 402 463 11,500 840 Climbing FlightAware ADS-B
12:20AM 40.3886 -73.0397 109° East 425 489 11,900 900 Climbing FlightAware ADS-B
12:21AM 40.3841 -73.0178 105° East 430 495 12,100 1,680 Climbing FlightAware ADS-B
12:21AM 40.3814 -72.9857 96° East 435 501 12,500 1,800 Climbing FlightAware ADS-B
12:21AM 40.3857 -72.9322 84° East 441 507 13,100 1,860 Climbing FlightAware ADS-B
12:22AM 40.4111 -72.8181 74° East 444 511 14,500 1,920 Climbing FlightAware ADS-B
12:22AM 40.4305 -72.7337 73° East 454 522 15,600 1,920 Climbing FlightAware ADS-B
12:23AM 40.4547 -72.6275 73° East 467 537 16,800 1,620 Climbing FlightAware ADS-B
12:24AM 40.4751 -72.5365 74° East 476 548 17,600 1,500 Climbing FlightAware ADS-B
12:24AM 40.5040 -72.4070 74° East 489 563 18,900 1,140 Climbing FlightAware
12:25AM 40.5310 -72.2870 73° East 493 567 19,400 360 Climbing FlightAware
12:26AM 40.5510 -72.1990 73° East 493 567 19,400 1,980 Level FlightAware
12:26AM 40.5800 -72.0710 73° East 509 586 21,700 2,880 Climbing FlightAware
12:27AM 40.6140 -71.9800 64° Northeast 513 590 22,500 1,440 Climbing FlightAware
12:27AM 40.6480 -71.9111 57° Northeast 518 596 23,100  Climbing FlightAware ADS-B
12:28AM 40.6910 -71.8110 60° Northeast 513 590 22,500 840 Descending FlightAware
12:29AM 40.7720 -71.6600 55° Northeast 528 608 24,500 1,320 Climbing FlightAware
12:29AM 40.8120 -71.5770 57° Northeast 528 608 24,500  Level FlightAware
12:30AM 40.8530 -71.4940 57° Northeast 528 608 24,500 2,100 Level FlightAware
12:31AM 40.9250 -71.3470 57° Northeast 551 634 27,000 1,980 Climbing FlightAware
12:31AM 40.9820 -71.2300 57° Northeast 555 639 27,200 480 Climbing FlightAware
12:32AM 41.0260 -71.1360 58° Northeast 556 640 27,700 1,560 Climbing FlightAware
12:33AM 41.0790 -71.0290 57° Northeast 554 638 29,000 1,680 Climbing FlightAware
12:33AM 41.1220 -70.9410 57° Northeast 554 638 29,600 1,080 Climbing FlightAware
12:34AM 41.1730 -70.8340 58° Northeast 554 638 30,300 540 Climbing FlightAware
12:34AM 41.2180 -70.7380 58° Northeast 554 638 30,300 420 Level FlightAware
12:35AM 41.2990 -70.5690 57° Northeast 554 638 31,000 420 Climbing FlightAware
12:36AM 41.3410 -70.4780 58° Northeast 554 638 31,000  Level FlightAware
12:36AM 41.3830 -70.3890 58° Northeast 554 638 31,000  Level FlightAware
12:37AM 41.4240 -70.3010 58° Northeast 554 638 31,000  Level FlightAware
12:38AM 41.4670 -70.2090 58° Northeast 554 638 31,000  Level FlightAware
12:38AM 41.5100 -70.1180 58° Northeast 554 638 31,000  Level FlightAware
12:39AM 41.5930 -69.9420 58° Northeast 31,000  Level FlightAware
12:39AM 41.6450 -69.8290 58° Northeast 551 634 31,000  Level FlightAware
12:40AM 41.6920 -69.7280 58° Northeast 551 634 31,000  Level FlightAware
12:41AM 41.7330 -69.6390 58° Northeast 551 634 31,000  Level FlightAware
12:41AM 41.7740 -69.5510 58° Northeast 551 634 31,000  Level FlightAware
12:42AM 41.8150 -69.4650 57° Northeast 551 634 31,000  Level FlightAware
12:43AM 41.8790 -69.3120 61° Northeast 547 629 31,000  Level FlightAware
12:43AM 41.9500 -69.1550 59° Northeast 546 628 31,000  Level FlightAware
12:44AM 41.9990 -69.0450 59° Northeast 547 629 31,000  Level FlightAware
12:45AM 42.0450 -68.9430 59° Northeast 548 631 31,000  Level FlightAware
12:45AM 42.0910 -68.8380 59° Northeast 548 631 31,000  Level FlightAware
12:46AM 42.1360 -68.7370 59° Northeast 550 633 31,000  Level FlightAware
12:46AM 42.1890 -68.6170 59° Northeast 553 636 31,000  Level FlightAware
12:47AM 42.2340 -68.5130 60° Northeast 556 640 31,000  Level FlightAware
12:48AM 42.3030 -68.3540 60° Northeast 558 642 31,000  Level FlightAware
12:48AM 42.3440 -68.2590 60° Northeast 558 642 31,000  Level FlightAware
12:49AM 42.3830 -68.1660 60° Northeast 558 642 31,000  Level FlightAware
12:50AM 42.4230 -68.0730 60° Northeast 558 642 31,000  Level FlightAware
12:50AM 42.4630 -67.9780 60° Northeast 558 642 31,000  Level FlightAware
12:51AM 42.5040 -67.8830 60° Northeast 558 642 31,000  Level FlightAware
12:52AM 42.5440 -67.7900 60° Northeast 558 642 31,000  Level FlightAware
12:52AM 42.5840 -67.6940 60° Northeast 558 642 31,000  Level FlightAware
12:53AM 42.6240 -67.6010 60° Northeast 558 642 31,000  Level FlightAware
12:53AM 42.6630 -67.5080 60° Northeast 558 642 31,000  Level FlightAware
12:54AM 42.7030 -67.4150 60° Northeast 558 642 31,000 480 Level FlightAware
12:57AM 43.0100 -66.6850 60° Northeast 33,000 540 Climbing FlightAware
12:58AM 43.0630 -66.5550 61° Northeast 572 658 33,000  Level FlightAware
12:58AM 43.1090 -66.4440 60° Northeast 574 661 33,000  Level FlightAware
12:59AM 43.1590 -66.3190 61° Northeast 575 662 33,000  Level FlightAware
12:59AM 43.2050 -66.2070 61° Northeast 576 663 33,000  Level FlightAware
01:00AM 43.2240 -66.1580 62° Northeast 577 664 33,000  Level FlightAware
01:00AM 43.2840 -66.0100 61° Northeast 578 665 33,000  Level FlightAware
01:01AM 43.3290 -65.8990 61° Northeast 578 665 33,000  Level FlightAware
01:02AM 43.3810 -65.7670 62° Northeast 580 667 33,000  Level FlightAware
01:02AM 43.4340 -65.6330 61° Northeast 585 673 33,000  Level FlightAware
01:03AM 43.4990 -65.4700 61° Northeast 585 673 33,000  Level FlightAware
01:04AM 43.5550 -65.3270 62° Northeast 587 676 33,000  Level FlightAware
01:04AM 43.5990 -65.2130 62° Northeast 586 674 33,000  Level FlightAware
01:05AM 43.6450 -65.0960 61° Northeast 587 676 33,000  Level FlightAware
01:06AM 43.6890 -64.9820 62° Northeast 587 676 33,000  Level FlightAware
01:06AM 43.7340 -64.8650 62° Northeast 588 677 33,000  Level FlightAware
01:07AM 43.7780 -64.7510 62° Northeast 589 678 33,000  Level FlightAware
01:08AM 43.8450 -64.5750 62° Northeast 591 680 33,000  Level FlightAware
01:08AM 43.8910 -64.4550 62° Northeast 590 679 33,000  Level FlightAware
01:09AM 43.9340 -64.3410 62° Northeast 590 679 33,000  Level FlightAware
01:09AM 43.9880 -64.1960 63° Northeast 589 678 33,000  Level FlightAware
01:10AM 44.0290 -64.0870 62° Northeast 587 676 33,000  Level FlightAware
01:11AM 44.0810 -63.9480 62° Northeast 585 673 33,000  Level FlightAware
01:11AM 44.1170 -63.8500 63° Northeast 585 673 33,000  Level FlightAware
01:12AM 44.1610 -63.7320 63° Northeast 583 671 33,000  Level FlightAware
01:12AM 44.2050 -63.6130 63° Northeast 583 671 33,000  Level FlightAware
01:13AM 44.2490 -63.4940 63° Northeast 582 670 33,000  Level FlightAware
01:14AM 44.2910 -63.3780 63° Northeast 582 670 33,000  Level FlightAware
01:14AM 44.3330 -63.2630 63° Northeast 581 669 33,000  Level FlightAware
01:15AM 44.3760 -63.1450 63° Northeast 581 669 33,000  Level FlightAware
01:15AM 44.4250 -63.0080 63° Northeast 580 667 33,000  Level FlightAware
01:16AM 44.4610 -62.9080 63° Northeast 580 667 33,000  Level FlightAware
01:16AM 44.5030 -62.7900 63° Northeast 580 667 33,000  Level FlightAware
01:17AM 44.5440 -62.6750 63° Northeast 582 670 33,000  Level FlightAware
01:18AM 44.5810 -62.5720 63° Northeast 583 671 33,000  Level FlightAware
01:18AM 44.6440 -62.3920 64° Northeast 583 671 33,000  Level FlightAware
01:19AM 44.6840 -62.2780 64° Northeast 583 671 33,000  Level FlightAware
01:20AM 44.7220 -62.1700 64° Northeast 583 671 33,000  Level FlightAware
01:20AM 44.7580 -62.0660 64° Northeast 583 671 33,000  Level FlightAware
01:21AM 44.7940 -61.9610 64° Northeast 583 671 33,000  Level FlightAware
01:21AM 44.8300 -61.8570 64° Northeast 583 671 33,000  Level FlightAware
01:22AM 44.8660 -61.7520 64° Northeast 583 671 33,000  Level FlightAware
01:23AM 44.9020 -61.6470 64° Northeast 583 671 33,000  Level FlightAware
01:23AM 44.9400 -61.5400 63° Northeast 583 671 33,000  Level FlightAware
01:24AM 44.9760 -61.4350 64° Northeast 583 671 33,000  Level FlightAware
01:25AM 45.0810 -61.1230 64° Northeast 580 667 33,000  Level FlightAware
01:25AM 45.1250 -60.9870 65° Northeast 580 667 33,000  Level FlightAware
01:26AM 45.1660 -60.8640 65° Northeast 582 670 33,000  Level FlightAware
01:26AM 45.2080 -60.7360 65° Northeast 583 671 33,000  Level FlightAware
01:27AM 45.2440 -60.6290 64° Northeast 584 672 33,000  Level FlightAware
01:28AM 45.2850 -60.5030 65° Northeast 583 671 33,000  Level FlightAware
01:28AM 45.3260 -60.3770 65° Northeast 582 670 33,000  Level FlightAware
01:29AM 45.3660 -60.2550 65° Northeast 582 670 33,000  Level FlightAware
01:29AM 45.4020 -60.1420 66° East 583 671 33,000  Level FlightAware
01:30AM 45.4430 -60.0160 65° Northeast 583 671 33,000  Level FlightAware
01:31AM 45.4840 -59.8890 65° Northeast 584 672 33,000  Level FlightAware
01:31AM 45.5240 -59.7620 66° East 585 673 33,000  Level FlightAware
01:32AM 45.5610 -59.6450 66° East 585 673 33,000  Level FlightAware
01:32AM 45.6020 -59.5160 66° East 584 672 33,000  Level FlightAware
01:33AM 45.6390 -59.3980 66° East 585 673 33,000  Level FlightAware
01:33AM 45.6790 -59.2700 66° East 585 673 33,000  Level FlightAware
01:34AM 45.7180 -59.1440 66° East 585 673 33,000 -120 Level FlightAware
01:35AM 45.7580 -59.0170 66° East 586 674 32,900 -120 Descending FlightAware
01:35AM 45.7930 -58.9020 66° East 586 674 32,900 60 Level FlightAware
01:36AM 45.8320 -58.7750 66° East 587 676 33,000 60 Climbing FlightAware
01:36AM 45.8670 -58.6610 66° East 588 677 33,000 -120 Level FlightAware
01:37AM 45.9090 -58.5250 66° East 587 676 32,900 -120 Descending FlightAware
01:38AM 45.9450 -58.4050 67° East 588 677 32,900  Level FlightAware
01:38AM 45.9850 -58.2730 66° East 589 678 32,900 60 Level FlightAware
01:39AM 46.0230 -58.1440 67° East 589 678 33,000 480 Climbing FlightAware
01:39AM 46.0620 -58.0140 67° East 590 679 33,500 900 Climbing FlightAware
01:39AM 46.0710 -57.9840 67° East 590 679 33,700 180 Climbing FlightAware
01:40AM 46.1240 -57.8130 66° East 590 679 33,700  Level FlightAware
01:41AM 46.1580 -57.7030 66° East 590 679 33,700  Level FlightAware
01:41AM 46.1810 -57.6290 66° East 590 679 33,700 120 Level FlightAware
01:42AM 46.2520 -57.3700 68° East 587 676 33,900 120 Climbing FlightAware
01:43AM 46.3000 -57.2040 67° East 582 670 33,900  Level FlightAware
01:44AM 46.3280 -57.1030 68° East 582 670 33,900  Level FlightAware
01:44AM 46.3850 -56.9070 67° East 581 669 33,900  Level FlightAware
01:45AM 46.4220 -56.7630 70° East 581 669 33,900  Level FlightAware
01:46AM 46.4550 -56.6380 69° East 582 670 33,900 60 Level FlightAware
01:46AM 46.4920 -56.4940 69° East 583 671 34,000 60 Climbing FlightAware
01:47AM 46.5270 -56.3610 69° East 584 672 34,000 -120 Level FlightAware
01:47AM 46.5570 -56.2450 69° East 584 672 33,900 -120 Descending FlightAware
01:48AM 46.5900 -56.1160 70° East 584 672 33,900  Level FlightAware
01:49AM 46.6250 -55.9830 69° East 583 671 33,900 60 Level FlightAware
01:49AM 46.6550 -55.8650 70° East 583 671 34,000 60 Climbing FlightAware
01:50AM 46.6900 -55.7260 70° East 582 670 34,000 -120 Level FlightAware
01:50AM 46.7240 -55.5900 70° East 582 670 33,900 -120 Descending FlightAware
01:51AM 46.7570 -55.4590 70° East 581 669 33,900  Level FlightAware
01:52AM 46.7860 -55.3420 70° East 580 667 33,900  Level FlightAware
01:52AM 46.8190 -55.2100 70° East 581 669 33,900  Level FlightAware
01:53AM 46.8490 -55.0900 70° East 580 667 33,900  Level FlightAware
01:53AM 46.8830 -54.9480 71° East 580 667 33,900 60 Level FlightAware
01:54AM 46.9150 -54.8170 70° East 580 667 34,000 60 Climbing FlightAware
01:55AM 46.9470 -54.6860 70° East 580 667 34,000 -120 Level FlightAware
01:55AM 46.9760 -54.5680 70° East 580 667 33,900 -120 Descending FlightAware
01:56AM 47.0080 -54.4330 71° East 581 669 33,900 60 Level FlightAware
01:56AM 47.0400 -54.3000 71° East 581 669 34,000  Climbing FlightAware
01:57AM 47.0670 -54.1860 71° East 581 669 33,900  Descending FlightAware
01:57AM 47.1000 -54.0430 71° East 581 669 34,000  Climbing FlightAware
01:58AM 47.1310 -53.9120 71° East 583 671 33,900 -120 Descending FlightAware
01:59AM 47.1600 -53.7900 71° East 584 672 33,900 60 Level FlightAware
01:59AM 47.1920 -53.6490 71° East 584 672 34,000  Climbing FlightAware
02:00AM 47.2190 -53.5330 71° East 584 672 33,900  Descending FlightAware
02:00AM 47.2540 -53.3790 71° East 583 671 34,000 60 Climbing FlightAware
02:01AM 47.2820 -53.2570 71° East 581 669 34,000 -120 Level FlightAware
02:01AM 47.3110 -53.1280 72° East 579 666 33,900  Descending FlightAware
02:02AM 47.3420 -52.9900 72° East 579 666 34,000  Climbing FlightAware
02:03AM 47.3720 -52.8540 72° East 581 669 33,900  Descending FlightAware
02:03AM 47.4010 -52.7270 71° East 582 670 34,000 60 Climbing FlightAware
02:04AM 47.4280 -52.6030 72° East 585 673 34,000 -120 Level FlightAware
02:04AM 47.4580 -52.4670 72° East 587 676 33,900  Descending FlightAware
02:05AM 47.4880 -52.3290 72° East 587 676 34,000 60 Climbing FlightAware
02:06AM 47.5170 -52.1930 72° East 589 678 34,000 -120 Level FlightAware
02:06AM 47.5470 -52.0530 72° East 590 679 33,900 -120 Descending FlightAware
02:07AM 47.5740 -51.9300 72° East 590 679 33,900 60 Level FlightAware
02:07AM 47.6030 -51.7920 73° East 590 679 34,000  Climbing FlightAware
02:08AM 47.6320 -51.6520 73° East 590 679 33,900 -120 Descending FlightAware
02:08AM 47.6590 -51.5240 73° East 590 679 33,900  Level FlightAware
02:09AM 47.6840 -51.4020 73° East 587 676 33,900 60 Level FlightAware
02:10AM 47.7140 -51.2600 73° East 585 673 34,000  Climbing FlightAware
02:10AM 47.7410 -51.1280 73° East 585 673 33,900 -120 Descending FlightAware
02:11AM 47.7690 -50.9920 73° East 585 673 33,900 60 Level FlightAware
02:11AM 47.7950 -50.8620 73° East 585 673 34,000  Climbing FlightAware
02:12AM 47.8160 -50.7580 73° East 585 673 33,900 -120 Descending FlightAware
02:13AM 47.8410 -50.6300 74° East 585 673 33,900  Level FlightAware
02:13AM 47.8650 -50.5050 74° East 585 673 33,900  Level FlightAware
02:14AM 47.8880 -50.3860 74° East 585 673 33,900  Level FlightAware
02:14AM 47.9090 -50.2740 74° East 585 673 33,900  Level FlightAware
02:15AM 47.9330 -50.1520 74° East 585 673 33,900  Level FlightAware
02:16AM 47.9540 -50.0390 74° East 585 673 33,900  Level FlightAware
02:16AM 47.9770 -49.9200 74° East 585 673 33,900 60 Level FlightAware
02:17AM 48.0000 -50.0000 78° East 573 659 34,000  Climbing ETMS Enhanced Traffic Management System
02:17AM 48.0000 -49.8020 74° East 585 673 33,900 -180 Descending FlightAware
02:17AM 48.0220 -49.6830 75° East 585 673 33,900  Level FlightAware
02:18AM 48.0833 -49.3000 78° East 580 667 33,900  Level Gander Center
02:18AM 48.0450 -49.5630 74° East 585 673 33,900  Level FlightAware
02:19AM 48.0680 -49.4440 74° East 585 673 33,900  Level FlightAware
02:19AM 48.1000 -49.0333 85° East 580 667 33,900  Level Gander Center
02:19AM 48.0920 -49.3220 74° East 585 673 33,900  Level FlightAware
02:20AM 48.1140 -49.2030 74° East 585 673 33,900  Level FlightAware
02:20AM 48.1333 -48.8333 76° East 580 667 33,900  Level Gander Center
02:20AM 48.1370 -49.0830 74° East 585 673 33,900  Level FlightAware
02:21AM 48.1500 -48.5667 85° East 580 667 33,900  Level Gander Center
02:21AM 48.1600 -48.9640 74° East 585 673 33,900  Level FlightAware
02:22AM 48.1830 -48.8410 74° East 585 673 33,900  Level FlightAware
02:22AM 48.2000 -48.3000 74° East 580 667 33,900  Level Gander Center
02:23AM 48.2167 -48.0667 84° East 580 667 33,900  Level Gander Center
02:24AM 48.2500 -47.8667 76° East 590 679 33,900  Level Gander Center
02:26AM 48.3167 -47.3833 78° East 590 679 33,900  Level Gander Center
02:28AM 48.3667 -46.9167 81° East 590 679 33,900  Level Gander Center
02:29AM 48.3833 -46.6500 85° East 580 667 33,900  Level Gander Center
02:31AM 48.4271 -46.2889 80° East  Level FlightAware Approximate
02:38AM 48.6019 -44.7345 80° East  Level FlightAware Approximate
02:39AM 48.6252 -44.5116 81° East  Level FlightAware Approximate
02:40AM 48.6480 -44.2885 81° East  Level FlightAware Approximate
02:41AM 48.6704 -44.0652 81° East  Level FlightAware Approximate
02:42AM 48.6924 -43.8416 81° East  Level FlightAware Approximate
02:43AM 48.7139 -43.6179 82° East  Level FlightAware Approximate
02:44AM 48.7350 -43.3940 82° East  Level FlightAware Approximate
02:45AM 48.7557 -43.1699 82° East  Level FlightAware Approximate
02:46AM 48.7759 -42.9457 82° East  Level FlightAware Approximate
02:47AM 48.7957 -42.7212 82° East  Level FlightAware Approximate
02:48AM 48.8150 -42.4966 82° East  Level FlightAware Approximate
02:49AM 48.8340 -42.2718 83° East  Level FlightAware Approximate
02:50AM 48.8524 -42.0469 83° East  Level FlightAware Approximate
02:51AM 48.8705 -41.8218 83° East  Level FlightAware Approximate
02:52AM 48.8881 -41.5965 83° East  Level FlightAware Approximate
02:53AM 48.9053 -41.3710 83° East  Level FlightAware Approximate
02:54AM 48.9220 -41.1455 83° East  Level FlightAware Approximate
02:55AM 48.9383 -40.9197 84° East  Level FlightAware Approximate
02:56AM 48.9541 -40.6938 84° East  Level FlightAware Approximate
02:57AM 48.9696 -40.4678 84° East  Level FlightAware Approximate
02:58AM 48.9845 -40.2416 84° East  Level FlightAware Approximate
02:59AM 48.9990 -40.0153 84° East  Level FlightAware Approximate
02:59AM 49.0000 -40.0000 77° East 549 632 34,000  Level ETMS Enhanced Traffic Management System
03:00AM 49.0300 -39.7930 77° East  Level FlightAware Approximate
03:01AM 49.0618 -39.5706 78° East  Level FlightAware Approximate
03:02AM 49.0931 -39.3479 78° East  Level FlightAware Approximate
03:03AM 49.1240 -39.1250 78° East  Level FlightAware Approximate
03:04AM 49.1545 -38.9017 78° East  Level FlightAware Approximate
03:05AM 49.2508 -38.1730 79° East 549 632 34,000  Level FlightAware Transoceanic
03:06AM 49.2801 -37.9434 79° East 549 632 34,000  Level FlightAware Transoceanic
03:07AM 49.3090 -37.7135 79° East 549 632 34,000  Level FlightAware Transoceanic
03:08AM 49.3374 -37.4833 79° East 549 632 34,000  Level FlightAware Transoceanic
03:09AM 49.3653 -37.2529 80° East 549 632 34,000  Level FlightAware Transoceanic
03:10AM 49.3928 -37.0222 80° East 549 632 34,000  Level FlightAware Transoceanic
03:11AM 49.4199 -36.7912 80° East 549 632 34,000  Level FlightAware Transoceanic
03:12AM 49.4464 -36.5600 80° East 549 632 34,000  Level FlightAware Transoceanic
03:13AM 49.4725 -36.3285 80° East 549 632 34,000  Level FlightAware Transoceanic
03:14AM 49.4982 -36.0968 80° East 549 632 34,000  Level FlightAware Transoceanic
03:15AM 49.5234 -35.8649 81° East 549 632 34,000  Level FlightAware Transoceanic
03:16AM 49.5481 -35.6327 81° East 549 632 34,000  Level FlightAware Transoceanic
03:17AM 49.5723 -35.4003 81° East 549 632 34,000  Level FlightAware Transoceanic
03:18AM 49.5961 -35.1676 81° East 549 632 34,000  Level FlightAware Transoceanic
03:19AM 49.6194 -34.9348 81° East 549 632 34,000  Level FlightAware Transoceanic
03:20AM 49.6423 -34.7017 81° East 549 632 34,000  Level FlightAware Transoceanic
03:21AM 49.6647 -34.4684 82° East 549 632 34,000  Level FlightAware Transoceanic
03:22AM 49.6866 -34.2348 82° East 549 632 34,000  Level FlightAware Transoceanic
03:23AM 49.7080 -34.0011 82° East 549 632 34,000  Level FlightAware Transoceanic
03:24AM 49.7290 -33.7672 82° East 549 632 34,000  Level FlightAware Transoceanic
03:25AM 49.7495 -33.5330 82° East 549 632 34,000  Level FlightAware Transoceanic
03:26AM 49.7695 -33.2987 83° East 549 632 34,000  Level FlightAware Transoceanic
03:27AM 49.7891 -33.0642 83° East 549 632 34,000  Level FlightAware Transoceanic
03:28AM 49.8082 -32.8295 83° East 549 632 34,000  Level FlightAware Transoceanic
03:29AM 49.8268 -32.5946 83° East 549 632 34,000  Level FlightAware Transoceanic
03:30AM 49.8449 -32.3595 83° East 549 632 34,000  Level FlightAware Transoceanic
03:31AM 49.8626 -32.1243 83° East 549 632 34,000  Level FlightAware Transoceanic
03:32AM 49.8798 -31.8889 84° East 549 632 34,000  Level FlightAware Transoceanic
03:33AM 49.8965 -31.6533 84° East 549 632 34,000  Level FlightAware Transoceanic
03:34AM 49.9127 -31.4176 84° East 549 632 34,000  Level FlightAware Transoceanic
03:35AM 49.9284 -31.1817 84° East 549 632 34,000  Level FlightAware Transoceanic
03:36AM 49.9437 -30.9456 84° East 549 632 34,000  Level FlightAware Transoceanic
03:37AM 49.9585 -30.7094 85° East 549 632 34,000  Level FlightAware Transoceanic
03:38AM 49.9728 -30.4731 85° East 549 632 34,000  Level FlightAware Transoceanic
03:39AM 49.9866 -30.2366 85° East 549 632 34,000  Level FlightAware Transoceanic
03:40AM 49.9997 -30.0054 85° East  Level FlightAware Approximate
03:41AM 50.0123 -29.7741 85° East  Level FlightAware Approximate
03:42AM 50.0093 -29.7792 86° East  Level FlightAware Approximate
03:43AM 50.0186 -29.5475 86° East  Level FlightAware Approximate
03:43AM 50.0000 -30.0000 86° East 537 618 34,000  Level ETMS Enhanced Traffic Management System
03:44AM 50.0275 -29.3157 87° East  Level FlightAware Approximate
03:45AM 50.0355 -29.0932 87° East  Level FlightAware Approximate
03:45AM 50.0000 -30.0000 86° East 537 618 34,000  Level ETMS Enhanced Traffic Management System
03:46AM 50.0431 -28.8706 87° East  Level FlightAware Approximate
03:47AM 50.0503 -28.6480 87° East  Level FlightAware Approximate
03:48AM 50.0571 -28.4253 87° East  Level FlightAware Approximate
03:49AM 50.0651 -28.1424 88° East 537 618 34,000  Level FlightAware Transoceanic
03:50AM 50.0712 -27.9098 88° East 537 618 34,000  Level FlightAware Transoceanic
03:51AM 50.0767 -27.6773 88° East 537 618 34,000  Level FlightAware Transoceanic
03:52AM 50.0818 -27.4446 88° East 537 618 34,000  Level FlightAware Transoceanic
03:53AM 50.0865 -27.2120 88° East 537 618 34,000  Level FlightAware Transoceanic
03:54AM 50.0907 -26.9792 88° East 537 618 34,000  Level FlightAware Transoceanic
03:55AM 50.0944 -26.7465 89° East 537 618 34,000  Level FlightAware Transoceanic
03:56AM 50.0977 -26.5137 89° East 537 618 34,000  Level FlightAware Transoceanic
03:57AM 50.1005 -26.2809 89° East 537 618 34,000  Level FlightAware Transoceanic
03:58AM 50.1028 -26.0480 89° East 537 618 34,000  Level FlightAware Transoceanic
03:59AM 50.1047 -25.8151 89° East 537 618 34,000  Level FlightAware Transoceanic
04:00AM 50.1061 -25.5823 90° East 537 618 34,000  Level FlightAware Transoceanic
04:01AM 50.1070 -25.3494 90° East 537 618 34,000  Level FlightAware Transoceanic
04:02AM 50.1075 -25.1164 90° East 537 618 34,000  Level FlightAware Transoceanic
04:03AM 50.1075 -24.8836 90° East 537 618 34,000  Level FlightAware Transoceanic
04:04AM 50.1070 -24.6506 90° East 537 618 34,000  Level FlightAware Transoceanic
04:05AM 50.1061 -24.4177 90° East 537 618 34,000  Level FlightAware Transoceanic
04:06AM 50.1047 -24.1849 91° East 537 618 34,000  Level FlightAware Transoceanic
04:07AM 50.1028 -23.9520 91° East 537 618 34,000  Level FlightAware Transoceanic
04:08AM 50.1005 -23.7191 91° East 537 618 34,000  Level FlightAware Transoceanic
04:09AM 50.0977 -23.4863 91° East 537 618 34,000  Level FlightAware Transoceanic
04:10AM 50.0944 -23.2535 91° East 537 618 34,000  Level FlightAware Transoceanic
04:11AM 50.0907 -23.0208 92° East 537 618 34,000  Level FlightAware Transoceanic
04:12AM 50.0865 -22.7880 92° East 537 618 34,000  Level FlightAware Transoceanic
04:13AM 50.0818 -22.5554 92° East 537 618 34,000  Level FlightAware Transoceanic
04:14AM 50.0767 -22.3227 92° East 537 618 34,000  Level FlightAware Transoceanic
04:15AM 50.0712 -22.0902 92° East 537 618 34,000  Level FlightAware Transoceanic
04:16AM 50.0651 -21.8576 92° East 537 618 34,000  Level FlightAware Transoceanic
04:17AM 50.0586 -21.6252 93° East 537 618 34,000  Level FlightAware Transoceanic
04:18AM 50.0516 -21.3928 93° East 537 618 34,000  Level FlightAware Transoceanic
04:19AM 50.0442 -21.1604 93° East 537 618 34,000  Level FlightAware Transoceanic
04:20AM 50.0363 -20.9282 93° East 537 618 34,000  Level FlightAware Transoceanic
04:21AM 50.0279 -20.6960 93° East 537 618 34,000  Level FlightAware Transoceanic
04:22AM 50.0191 -20.4639 93° East 537 618 34,000  Level FlightAware Transoceanic
04:23AM 50.0098 -20.2319 94° East 537 618 34,000 -60 Level FlightAware Transoceanic
04:24AM 50.0004 -20.0097 94° East  Level FlightAware Approximate
04:25AM 49.9906 -19.7875 94° East  Level FlightAware Approximate
04:26AM 49.9934 -19.7970 93° East  Level FlightAware Approximate
04:27AM 49.9858 -19.5746 93° East  Level FlightAware Approximate
04:28AM 49.9777 -19.3524 93° East  Level FlightAware Approximate
04:29AM 49.9692 -19.1302 93° East  Level FlightAware Approximate
04:30AM 49.9603 -18.9081 93° East  Level FlightAware Approximate
04:31AM 49.9510 -18.6861 94° East  Level FlightAware Approximate
04:32AM 49.9412 -18.4641 94° East  Level FlightAware Approximate
04:33AM 49.9311 -18.2423 94° East  Level FlightAware Approximate
04:34AM 49.9205 -18.0206 94° East  Level FlightAware Approximate
04:35AM 49.9095 -17.7989 94° East  Level FlightAware Approximate
04:36AM 49.8980 -17.5774 95° East  Level FlightAware Approximate
04:37AM 49.8862 -17.3559 95° East  Level FlightAware Approximate
04:38AM 49.8739 -17.1346 95° East  Level FlightAware Approximate
04:39AM 49.8612 -16.9134 95° East  Level FlightAware Approximate
04:40AM 49.8480 -16.6923 95° East  Level FlightAware Approximate
04:41AM 49.8345 -16.4714 95° East  Level FlightAware Approximate
04:42AM 49.8205 -16.2505 96° East  Level FlightAware Approximate
04:43AM 49.8061 -16.0298 96° East  Level FlightAware Approximate
04:44AM 49.7913 -15.8092 96° East  Level FlightAware Approximate
04:45AM 49.7761 -15.5888 96° East  Level FlightAware Approximate
04:46AM 49.7605 -15.3685 96° East  Level FlightAware Approximate
04:47AM 49.7444 -15.1483 96° East  Level FlightAware Approximate
04:48AM 49.7278 -14.9283 97° East  Level FlightAware Approximate
04:49AM 49.7104 -14.7086 97° East  Level FlightAware Approximate
04:50AM 49.6926 -14.4890 97° East  Level FlightAware Approximate
04:51AM 49.6744 -14.2695 97° East  Level FlightAware Approximate
04:52AM 49.6558 -14.0502 97° East  Level FlightAware Approximate
04:53AM 49.6368 -13.8311 98° East  Level FlightAware Approximate
04:54AM 49.6173 -13.6122 98° East  Level FlightAware Approximate
04:55AM 49.5975 -13.3934 98° East  Level FlightAware Approximate
04:56AM 49.5772 -13.1748 98° East  Level FlightAware Approximate
04:57AM 49.5565 -12.9564 98° East  Level FlightAware Approximate
04:58AM 49.5354 -12.7382 98° East  Level FlightAware Approximate
04:59AM 49.5151 -12.5199 98° East  Level FlightAware Approximate
05:00AM 49.4945 -12.3018 98° East  Level FlightAware Approximate
05:01AM 49.4734 -12.0839 98° East  Level FlightAware Approximate
05:02AM 49.4520 -11.8661 99° East  Level FlightAware Approximate
05:03AM 49.4301 -11.6485 99° East  Level FlightAware Approximate
05:04AM 49.4078 -11.4312 99° East  Level FlightAware Approximate
05:05AM 49.3849 -11.2141 99° East  Level FlightAware Approximate
05:06AM 49.3616 -10.9971 99° East  Level FlightAware Approximate
05:07AM 49.3380 -10.7804 99° East  Level FlightAware Approximate
05:08AM 49.3139 -10.5639 100° East  Level FlightAware Approximate
05:09AM 49.2894 -10.3476 100° East  Level FlightAware Approximate
05:10AM 49.2645 -10.1316 100° East  Level FlightAware Approximate
05:11AM 49.2392 -9.9157 100° East  Level FlightAware Approximate
05:12AM 49.2135 -9.7001 100° East  Level FlightAware Approximate
05:13AM 49.1874 -9.4847 100° East  Level FlightAware Approximate
05:13AM 49.2366 -8.9959 100° East 498 573 32,900  Level FlightAware UK
05:14AM 49.2195 -8.8828 103° East 500 575 32,900  Level FlightAware UK
05:14AM 49.2000 -8.7682 105° East 500 575 32,900  Level FlightAware UK
05:14AM 49.1720 -8.8130 105° East 554 638 32,900  Level FlightAware
05:15AM 49.1480 -8.6660 104° East 553 636 32,900  Level FlightAware
05:16AM 49.1250 -8.5280 104° East 554 638 32,900  Level FlightAware
05:16AM 49.1237 -8.3146 104° East 496 571 32,900  Level FlightAware UK
05:16AM 49.1030 -8.3970 104° East 554 638 32,900  Level FlightAware
05:17AM 49.0800 -8.2630 105° East 554 638 32,900  Level FlightAware
05:17AM 49.0560 -8.1240 105° East 555 639 32,900  Level FlightAware
05:18AM 49.0350 -8.0000 104° East 555 639 32,900  Level FlightAware
05:19AM 49.0030 -7.8750 111° Southeast 548 631 32,900  Level FlightAware
05:19AM 48.9650 -7.7490 115° Southeast 548 631 32,900  Level FlightAware
05:20AM 48.9280 -7.6200 114° Southeast 549 632 32,900  Level FlightAware
05:20AM 48.9119 -7.4191 114° Southeast 500 575 32,900  Level FlightAware UK
05:20AM 48.8920 -7.5000 114° Southeast 547 629 32,900  Level FlightAware
05:21AM 48.8560 -7.3890 116° Southeast 547 629 32,900 60 Level FlightAware
05:22AM 48.8170 -7.2670 116° Southeast 547 629 33,000  Climbing FlightAware
05:22AM 48.7760 -7.1370 116° Southeast 546 628 32,900  Descending FlightAware
05:23AM 48.7370 -7.0130 115° Southeast 544 626 33,000  Climbing FlightAware
05:23AM 48.7040 -6.9100 116° Southeast 544 626 32,900 -120 Descending FlightAware
05:24AM 48.6778 -6.6967 116° Southeast 498 573 32,900  Level FlightAware UK
05:24AM 48.6600 -6.7700 116° Southeast 539 620 32,900  Level FlightAware
05:25AM 48.6210 -6.6480 116° Southeast 536 617 32,900  Level FlightAware
05:25AM 48.5830 -6.5300 116° Southeast 534 615 32,900  Level FlightAware
05:26AM 48.5450 -6.4130 116° Southeast 534 615 32,900  Level FlightAware
05:26AM 48.5070 -6.2990 116° Southeast 535 616 32,900  Level FlightAware
05:26AM 48.5118 -6.1902 116° Southeast 494 568 32,900  Level FlightAware UK
05:27AM 48.4660 -6.1730 116° Southeast 538 619 32,900  Level FlightAware
05:28AM 48.4240 -6.0450 116° Southeast 538 619 32,900 60 Level FlightAware
05:28AM 48.3880 -5.9360 116° Southeast 539 620 33,000  Climbing FlightAware
05:29AM 48.3520 -5.8260 116° Southeast 539 620 32,900 -180 Descending FlightAware
05:29AM 48.3574 -5.7288 116° Southeast 496 571 32,900 120 Level FlightAware UK
05:29AM 48.3070 -5.6930 117° Southeast 540 621 33,000  Climbing FlightAware
05:30AM 48.2700 -5.5830 117° Southeast 539 620 32,900 -180 Descending FlightAware
05:30AM 48.2761 -5.4887 117° Southeast 502 578 32,900  Level FlightAware UK
05:30AM 48.2424 -5.3886 117° Southeast 496 571 32,900  Level FlightAware UK
05:30AM 48.2310 -5.4660 117° Southeast 538 619 32,900  Level FlightAware
05:31AM 48.1930 -5.3510 116° Southeast 538 619 32,900  Level FlightAware
05:32AM 48.1500 -5.2240 117° Southeast 538 619 32,900  Level FlightAware
05:32AM 48.1160 -5.1250 117° Southeast 538 619 32,900  Level FlightAware
05:33AM 48.0710 -4.9920 117° Southeast 538 619 32,900  Level FlightAware
05:33AM 48.0340 -4.8850 117° Southeast 538 619 32,900  Level FlightAware
05:34AM 47.9920 -4.7630 117° Southeast 538 619 32,900  Level FlightAware
05:35AM 47.9500 -4.6450 118° Southeast 538 619 32,900  Level FlightAware
05:35AM 47.9130 -4.5370 117° Southeast 538 619 32,900  Level FlightAware
05:36AM 47.8720 -4.4220 118° Southeast 539 620 32,900  Level FlightAware
05:36AM 47.8300 -4.3030 118° Southeast 539 620 32,900  Level FlightAware
05:37AM 47.7930 -4.1970 117° Southeast 539 620 32,900  Level FlightAware
05:37AM 47.7510 -4.0790 118° Southeast 538 619 32,900  Level FlightAware
05:38AM 47.7100 -3.9630 118° Southeast 538 619 32,900  Level FlightAware
05:39AM 47.6700 -3.8530 118° Southeast 538 619 32,900  Level FlightAware
05:39AM 47.6300 -3.7420 118° Southeast 537 618 32,900 480 Level FlightAware
05:40AM 47.5850 -3.6180 118° Southeast 536 617 33,500 1,260 Climbing FlightAware
05:40AM 47.5430 -3.5010 118° Southeast 533 613 34,500 1,320 Climbing FlightAware
05:41AM 47.5060 -3.3990 118° Southeast 533 613 35,000 300 Climbing FlightAware
05:41AM 47.4650 -3.2830 118° Southeast 532 612 34,900 -120 Descending FlightAware
05:42AM 47.4220 -3.1670 119° Southeast 530 610 34,900  Level FlightAware
05:43AM 47.3850 -3.0670 119° Southeast 529 609 34,900  Level FlightAware
05:43AM 47.3440 -2.9580 119° Southeast 528 608 34,900  Level FlightAware
05:44AM 47.2990 -2.8400 119° Southeast 527 606 34,900  Level FlightAware
05:44AM 47.2580 -2.7300 119° Southeast 527 606 34,900  Level FlightAware
05:45AM 47.2140 -2.6150 119° Southeast 528 608 34,900  Level FlightAware
05:46AM 47.1780 -2.5210 119° Southeast 528 608 34,900 60 Level FlightAware
05:46AM 47.1390 -2.4190 119° Southeast 529 609 35,000  Climbing FlightAware
05:47AM 47.0890 -2.2910 120° Southeast 529 609 34,900  Descending FlightAware
05:47AM 47.0490 -2.1860 119° Southeast 528 608 35,000  Climbing FlightAware
05:48AM 47.0060 -2.0760 120° Southeast 526 605 34,900 -120 Descending FlightAware
05:48AM 46.9650 -1.9700 120° Southeast 524 603 34,900  Level FlightAware
05:49AM 46.9210 -1.8580 120° Southeast 523 602 34,900  Level FlightAware
05:50AM 46.8840 -1.7620 119° Southeast 522 601 34,900  Level FlightAware
05:50AM 46.8380 -1.6490 121° Southeast 521 600 34,900  Level FlightAware
05:51AM 46.7960 -1.5410 120° Southeast 519 597 34,900  Level FlightAware
05:51AM 46.7520 -1.4300 120° Southeast 517 595 34,900  Level FlightAware
05:52AM 46.7110 -1.3300 121° Southeast 517 595 34,900  Level FlightAware
05:53AM 46.6680 -1.2210 120° Southeast 517 595 34,900  Level FlightAware
05:53AM 46.6240 -1.1130 121° Southeast 518 596 34,900  Level FlightAware
05:54AM 46.5820 -1.0080 120° Southeast 517 595 34,900  Level FlightAware
05:54AM 46.5380 -0.8910 119° Southeast 521 600 34,900 60 Level FlightAware
05:55AM 46.5060 -0.7500 108° East 522 601 35,000  Climbing FlightAware
05:56AM 46.4820 -0.6430 108° East 523 602 34,900 -120 Descending FlightAware
05:56AM 46.4540 -0.5290 110° East 523 602 34,900  Level FlightAware
05:57AM 46.4250 -0.4190 111° Southeast 523 602 34,900 60 Level FlightAware
05:57AM 46.3940 -0.3010 111° Southeast 523 602 35,000  Climbing FlightAware
05:58AM 46.3600 -0.1710 111° Southeast 522 601 34,900 -120 Descending FlightAware
05:59AM 46.3330 -0.0710 111° Southeast 522 601 34,900 60 Level FlightAware
05:59AM 46.3080 0.0230 111° Southeast 522 601 35,000  Climbing FlightAware
06:00AM 46.2800 0.1340 110° East 523 602 34,900 -120 Descending FlightAware
06:00AM 46.2460 0.2690 110° East 521 600 34,900  Level FlightAware
06:01AM 46.2210 0.3680 110° East 520 598 34,900  Level FlightAware
06:02AM 46.1810 0.5270 110° East 518 596 34,900  Level FlightAware
06:02AM 46.1570 0.6200 110° East 519 597 34,900  Level FlightAware
06:03AM 46.1210 0.7590 110° East 517 595 34,900  Level FlightAware
06:03AM 46.0960 0.8560 110° East 515 593 34,900  Level FlightAware
06:04AM 46.0680 0.9640 110° East 515 593 34,900 60 Level FlightAware
06:05AM 46.0380 1.0780 111° Southeast 513 590 35,000  Climbing FlightAware
06:05AM 46.0070 1.1940 111° Southeast 512 589 34,900 -120 Descending FlightAware
06:06AM 45.9800 1.2970 111° Southeast 511 588 34,900  Level FlightAware
06:06AM 45.9490 1.4150 111° Southeast 510 587 34,900  Level FlightAware
06:07AM 45.9170 1.5340 111° Southeast 509 586 34,900  Level FlightAware
06:08AM 45.8880 1.6430 111° Southeast 508 585 34,900  Level FlightAware
06:08AM 45.8580 1.7550 111° Southeast 508 585 34,900  Level FlightAware
06:09AM 45.8210 1.8920 111° Southeast 507 583 34,900  Level FlightAware
06:09AM 45.7880 2.0120 111° Southeast 507 583 34,900  Level FlightAware
06:10AM 45.7610 2.1120 111° Southeast 508 585 34,900  Level FlightAware
06:10AM 45.7340 2.2120 111° Southeast 511 588 34,900  Level FlightAware
06:11AM 45.6980 2.3400 112° Southeast 514 592 34,900 60 Level FlightAware
06:12AM 45.6780 2.4140 111° Southeast 517 595 35,000  Climbing FlightAware
06:12AM 45.6380 2.5570 112° Southeast 518 596 34,900 -120 Descending FlightAware
06:13AM 45.6100 2.6580 112° Southeast 518 596 34,900  Level FlightAware
06:13AM 45.5810 2.7630 112° Southeast 518 596 34,900  Level FlightAware
06:14AM 45.5400 2.9060 112° Southeast 519 597 34,900 60 Level FlightAware
06:15AM 45.4990 3.0570 111° Southeast 518 596 35,000  Climbing FlightAware
06:15AM 45.4860 3.0980 114° Southeast 520 598 34,900 -120 Descending FlightAware
06:16AM 45.4500 3.2230 112° Southeast 520 598 34,900  Level FlightAware
06:16AM 45.4180 3.3360 112° Southeast 520 598 34,900  Level FlightAware
06:17AM 45.3790 3.4720 112° Southeast 521 600 34,900 60 Level FlightAware
06:18AM 45.3590 3.5390 113° Southeast 521 600 35,000  Climbing FlightAware
06:18AM 45.3210 3.6610 114° Southeast 517 595 34,900 -120 Descending FlightAware
06:19AM 45.2710 3.7660 124° Southeast 513 590 34,900  Level FlightAware
06:19AM 45.2270 3.8550 125° Southeast 513 590 34,900  Level FlightAware
06:19AM 45.2190 3.8730 122° Southeast 513 590 34,900  Level FlightAware
06:21AM 45.1140 4.1000 123° Southeast 513 590 34,900  Level FlightAware
06:22AM 45.0450 4.2510 123° Southeast 512 589 34,900  Level FlightAware
06:22AM 44.9970 4.3540 123° Southeast 510 587 34,900  Level FlightAware
06:23AM 44.9370 4.4770 125° Southeast 509 586 34,900  Level FlightAware
06:23AM 44.9330 4.4850 125° Southeast 509 586 34,900  Level FlightAware
06:24AM 44.8340 4.6870 125° Southeast 509 586 34,900  Level FlightAware
06:25AM 44.7830 4.7930 124° Southeast 509 586 34,900  Level FlightAware
06:25AM 44.7380 4.8830 125° Southeast 509 586 34,900  Level FlightAware
06:26AM 44.6930 4.9760 124° Southeast 508 585 34,900  Level FlightAware
06:27AM 44.6460 5.0700 125° Southeast 507 583 34,900  Level FlightAware
06:27AM 44.5970 5.1700 125° Southeast 507 583 34,900  Level FlightAware
06:28AM 44.5470 5.2690 125° Southeast 507 583 34,900  Level FlightAware
06:28AM 44.5040 5.3550 125° Southeast 506 582 34,900  Level FlightAware
06:29AM 44.4560 5.4500 125° Southeast 506 582 34,900  Level FlightAware
06:30AM 44.4070 5.5470 125° Southeast 507 583 34,900  Level FlightAware
06:30AM 44.3690 5.6500 117° Southeast 510 587 34,900  Level FlightAware
06:31AM 44.3350 5.7480 116° Southeast 511 588 34,900  Level FlightAware
06:31AM 44.2980 5.8560 116° Southeast 511 588 34,900  Level FlightAware
06:32AM 44.2620 5.9700 114° Southeast 512 589 34,900 60 Level FlightAware
06:32AM 44.2350 6.0650 112° Southeast 512 589 35,000  Climbing FlightAware
06:33AM 44.2030 6.1780 112° Southeast 511 588 34,900 -120 Descending FlightAware
06:34AM 44.1770 6.2680 112° Southeast 511 588 34,900 60 Level FlightAware
06:34AM 44.1300 6.3770 121° Southeast 506 582 35,000  Climbing FlightAware
06:35AM 44.0800 6.4790 124° Southeast 507 583 34,900 -120 Descending FlightAware
06:35AM 44.0390 6.5660 123° Southeast 507 583 34,900  Level FlightAware
06:36AM 43.9980 6.6520 124° Southeast 506 582 34,900  Level FlightAware
06:37AM 43.9330 6.7840 124° Southeast 505 581 34,900  Level FlightAware
06:37AM 43.8830 6.8850 124° Southeast 504 580 34,900  Level FlightAware
06:38AM 43.8330 6.9840 125° Southeast 502 578 34,900  Level FlightAware
06:39AM 43.7850 7.0810 124° Southeast 502 578 34,900  Level FlightAware
06:39AM 43.7470 7.1580 124° Southeast 503 579 34,900  Level FlightAware
06:40AM 43.6950 7.2620 125° Southeast 505 581 34,900  Level FlightAware
06:40AM 43.6480 7.3560 125° Southeast 505 581 34,900  Level FlightAware
06:41AM 43.6050 7.4410 125° Southeast 505 581 34,900  Level FlightAware
06:41AM 43.5550 7.5400 125° Southeast 505 581 34,900  Level FlightAware
06:42AM 43.5060 7.6370 125° Southeast 505 581 34,900  Level FlightAware
06:43AM 43.4660 7.7180 124° Southeast 503 579 34,900  Level FlightAware
06:43AM 43.4180 7.8120 125° Southeast 502 578 34,900  Level FlightAware
06:44AM 43.3670 7.9110 125° Southeast 500 575 34,900  Level FlightAware
06:44AM 43.3220 8.0000 125° Southeast 499 574 34,900  Level FlightAware
06:45AM 43.2780 8.0860 125° Southeast 498 573 34,900  Level FlightAware
06:46AM 43.2300 8.1790 125° Southeast 499 574 34,900  Level FlightAware
06:46AM 43.1860 8.2640 125° Southeast 499 574 34,900  Level FlightAware
06:47AM 43.1370 8.3600 125° Southeast 500 575 34,900  Level FlightAware
06:47AM 43.0920 8.4470 125° Southeast 500 575 34,900  Level FlightAware
06:48AM 43.0440 8.5400 125° Southeast 501 577 34,900  Level FlightAware
06:48AM 42.9960 8.6320 125° Southeast 501 577 34,900  Level FlightAware
06:49AM 42.9530 8.7140 126° Southeast 500 575 34,900  Level FlightAware
06:50AM 42.9050 8.8040 126° Southeast 501 577 34,900  Level FlightAware
06:50AM 42.8430 8.9230 125° Southeast 501 577 34,900  Level FlightAware
06:51AM 42.8030 8.9980 126° Southeast 500 575 34,900  Level FlightAware
06:51AM 42.7550 9.0890 126° Southeast 499 574 34,900  Level FlightAware
06:52AM 42.7070 9.1800 126° Southeast 498 573 34,900  Level FlightAware
06:53AM 42.6590 9.2690 126° Southeast 498 573 34,900  Level FlightAware
06:53AM 42.6140 9.3550 125° Southeast 493 567 34,900  Level FlightAware
06:54AM 42.5740 9.4570 118° Southeast 506 582 34,900  Level FlightAware
06:54AM 42.5460 9.5640 110° East 506 582 34,900  Level FlightAware
06:55AM 42.5190 9.6620 110° East 503 579 34,900  Level FlightAware
06:56AM 42.4760 9.7530 123° Southeast 498 573 34,900 60 Level FlightAware
06:56AM 42.4260 9.8560 123° Southeast 499 574 35,000  Climbing FlightAware
06:57AM 42.3860 9.9420 122° Southeast 500 575 34,900 -120 Descending FlightAware
06:57AM 42.3430 10.0380 121° Southeast 500 575 34,900  Level FlightAware
06:58AM 42.3000 10.1350 121° Southeast 500 575 34,900  Level FlightAware
06:58AM 42.2670 10.2090 121° Southeast 501 577 34,900  Level FlightAware
06:59AM 42.2170 10.3180 122° Southeast 500 575 34,900  Level FlightAware
07:00AM 42.1760 10.4030 123° Southeast 500 575 34,900  Level FlightAware
07:00AM 42.1270 10.5060 123° Southeast 500 575 34,900 60 Level FlightAware
07:01AM 42.0850 10.5930 123° Southeast 500 575 35,000  Climbing FlightAware
07:01AM 42.0430 10.6820 122° Southeast 499 574 34,900  Descending FlightAware
07:02AM 41.9970 10.7770 123° Southeast 498 573 35,000  Climbing FlightAware
07:03AM 41.9510 10.8710 123° Southeast 498 573 34,900 -120 Descending FlightAware
07:03AM 41.9100 10.9560 123° Southeast 499 574 34,900  Level FlightAware
07:04AM 41.8690 11.0410 123° Southeast 500 575 34,900  Level FlightAware
07:04AM 41.8180 11.1450 123° Southeast 500 575 34,900  Level FlightAware
07:05AM 41.7780 11.2280 123° Southeast 501 577 34,900  Level FlightAware
07:05AM 41.7310 11.3220 124° Southeast 501 577 34,900  Level FlightAware
07:06AM 41.6860 11.4150 123° Southeast 501 577 34,900  Level FlightAware
07:07AM 41.6450 11.4980 123° Southeast 502 578 34,900  Level FlightAware
07:07AM 41.6000 11.5890 123° Southeast 503 579 34,900  Level FlightAware
07:08AM 41.5520 11.6850 124° Southeast 502 578 34,900  Level FlightAware
07:08AM 41.5040 11.7820 123° Southeast 502 578 34,900  Level FlightAware
07:09AM 41.4620 11.8650 124° Southeast 502 578 34,900 60 Level FlightAware
07:10AM 41.4170 11.9560 123° Southeast 501 577 35,000  Climbing FlightAware
07:10AM 41.3750 12.0400 124° Southeast 500 575 34,900  Descending FlightAware
07:11AM 41.3430 12.1140 120° Southeast 500 575 35,000  Climbing FlightAware
07:11AM 41.2950 12.2320 118° Southeast 499 574 34,900 -120 Descending FlightAware
07:12AM 41.2550 12.3300 118° Southeast 498 573 34,900 60 Level FlightAware
07:13AM 41.2140 12.4280 119° Southeast 497 572 35,000  Climbing FlightAware
07:13AM 41.1750 12.5220 119° Southeast 497 572 34,900 -120 Descending FlightAware
07:14AM 41.1390 12.6080 119° Southeast 495 570 34,900 60 Level FlightAware
07:14AM 41.0990 12.7030 119° Southeast 492 566 35,000  Climbing FlightAware
07:15AM 41.0610 12.7950 119° Southeast 493 567 34,900 -120 Descending FlightAware
07:16AM 41.0180 12.8970 119° Southeast 493 567 34,900  Level FlightAware
07:16AM 40.9760 12.9960 119° Southeast 495 570 34,900  Level FlightAware
07:17AM 40.9350 13.0920 119° Southeast 494 568 34,900  Level FlightAware
07:17AM 40.8980 13.1780 120° Southeast 492 566 34,900 60 Level FlightAware
07:18AM 40.8570 13.2740 119° Southeast 491 565 35,000  Climbing FlightAware
07:18AM 40.8170 13.3670 120° Southeast 488 562 34,900 -120 Descending FlightAware
07:19AM 40.7770 13.4610 119° Southeast 487 560 34,900  Level FlightAware
07:19AM 40.7510 13.5230 119° Southeast 485 558 34,900  Level FlightAware
07:21AM 40.6780 13.6900 120° Southeast 484 557 35,000  Climbing FlightAware
07:21AM 40.6190 13.8260 120° Southeast 482 555 34,900 180 Descending FlightAware
07:22AM 40.5780 13.9190 120° Southeast 484 557 35,300 960 Climbing FlightAware
07:23AM 40.5430 14.0000 120° Southeast 484 557 36,000 1,260 Climbing FlightAware
07:23AM 40.5120 14.0700 120° Southeast 482 555 36,600 480 Climbing FlightAware
07:24AM 40.4190 14.2810 120° Southeast 481 554 36,900 120 Climbing FlightAware
07:25AM 40.3840 14.3590 120° Southeast 479 551 36,900  Level FlightAware
07:26AM 40.3430 14.4520 120° Southeast 479 551 36,900  Level FlightAware
07:26AM 40.3060 14.5350 120° Southeast 478 550 36,900  Level FlightAware
07:27AM 40.2670 14.6220 120° Southeast 477 549 36,900  Level FlightAware
07:27AM 40.2270 14.7130 120° Southeast 476 548 36,900 60 Level FlightAware
07:28AM 40.1910 14.8070 117° Southeast 475 547 37,000 60 Climbing FlightAware
07:29AM 40.1560 14.9010 116° Southeast 477 549 37,000 -120 Level FlightAware
07:29AM 40.1230 14.9870 117° Southeast 478 550 36,900 -120 Descending FlightAware
07:30AM 40.0940 15.0640 116° Southeast 478 550 36,900  Level FlightAware
07:30AM 40.0580 15.1590 116° Southeast 477 549 36,900  Level FlightAware
07:31AM 40.0210 15.2580 116° Southeast 477 549 36,900  Level FlightAware
07:31AM 39.9880 15.3460 116° Southeast 477 549 36,900  Level FlightAware
07:32AM 39.9520 15.4440 116° Southeast 478 550 36,900  Level FlightAware
07:33AM 39.9200 15.5270 117° Southeast 478 550 36,900 60 Level FlightAware
07:33AM 39.8870 15.6150 116° Southeast 478 550 37,000  Climbing FlightAware
07:34AM 39.8520 15.7060 117° Southeast 479 551 36,900 -120 Descending FlightAware
07:34AM 39.8180 15.7960 116° Southeast 481 554 36,900 60 Level FlightAware
07:35AM 39.7860 15.8790 117° Southeast 482 555 37,000  Climbing FlightAware
07:35AM 39.7460 15.9850 116° Southeast 484 557 36,900 -120 Descending FlightAware
07:36AM 39.7090 16.0790 117° Southeast 487 560 36,900  Level FlightAware
07:37AM 39.6770 16.1630 116° Southeast 487 560 36,900  Level FlightAware
07:37AM 39.6420 16.2540 117° Southeast 487 560 36,900  Level FlightAware
07:38AM 39.6110 16.3330 117° Southeast 487 560 36,900  Level FlightAware
07:38AM 39.5720 16.4340 117° Southeast 487 560 36,900  Level FlightAware
07:39AM 39.5350 16.5270 117° Southeast 488 562 36,900  Level FlightAware
07:40AM 39.4650 16.7110 116° Southeast 488 562 36,900  Level FlightAware
07:41AM 39.4350 16.7840 118° Southeast 491 565 37,000  Climbing FlightAware
07:41AM 39.3800 16.9230 117° Southeast 493 567 36,900 -120 Descending FlightAware
07:42AM 39.3420 17.0200 117° Southeast 493 567 36,900  Level FlightAware
07:42AM 39.3250 17.0620 118° Southeast 493 567 36,900  Level FlightAware
07:43AM 39.2800 17.1760 117° Southeast 494 568 36,900 60 Level FlightAware
07:44AM 39.2270 17.3090 117° Southeast 493 567 37,000  Climbing FlightAware
07:45AM 39.1890 17.4030 118° Southeast 495 570 36,900 -120 Descending FlightAware
07:45AM 39.1580 17.4800 117° Southeast 495 570 36,900  Level FlightAware
07:46AM 39.1160 17.5850 117° Southeast 496 571 36,900  Level FlightAware
07:46AM 39.0790 17.6750 118° Southeast 496 571 36,900  Level FlightAware
07:47AM 39.0460 17.7580 117° Southeast 496 571 36,900  Level FlightAware
07:47AM 39.0030 17.8630 118° Southeast 497 572 36,900 60 Level FlightAware
07:48AM 38.9670 17.9510 118° Southeast 497 572 37,000  Climbing FlightAware
07:49AM 38.9320 18.0370 118° Southeast 497 572 36,900 -120 Descending FlightAware
07:49AM 38.8940 18.1310 117° Southeast 497 572 36,900  Level FlightAware
07:50AM 38.8550 18.2250 118° Southeast 498 573 36,900  Level FlightAware
07:50AM 38.8170 18.3180 118° Southeast 497 572 36,900 60 Level FlightAware
07:51AM 38.7820 18.4010 118° Southeast 496 571 37,000  Climbing FlightAware
07:52AM 38.7420 18.4990 118° Southeast 496 571 36,900 -120 Descending FlightAware
07:52AM 38.7070 18.5830 118° Southeast 496 571 36,900  Level FlightAware
07:53AM 38.6700 18.6700 119° Southeast 497 572 36,900  Level FlightAware
07:53AM 38.6300 18.7670 118° Southeast 498 573 36,900 60 Level FlightAware
07:54AM 38.5910 18.8610 118° Southeast 500 575 37,000  Climbing FlightAware
07:55AM 38.5490 18.9760 115° Southeast 508 585 36,900 -120 Descending FlightAware
07:55AM 38.5220 19.0780 109° East 511 588 36,900  Level FlightAware
07:56AM 38.4970 19.1750 108° East 512 589 36,900  Level FlightAware
07:56AM 38.4700 19.2780 108° East 512 589 36,900 60 Level FlightAware
07:57AM 38.4400 19.3900 109° East 512 589 37,000  Climbing FlightAware
07:58AM 38.4130 19.4930 108° East 512 589 36,900 -120 Descending FlightAware
07:58AM 38.3910 19.5760 109° East 512 589 36,900 60 Level FlightAware
07:59AM 38.3640 19.6770 109° East 512 589 37,000  Climbing FlightAware
07:59AM 38.3330 19.7910 109° East 513 590 36,900 -180 Descending FlightAware
07:59AM 38.3260 19.8190 108° East 513 590 36,900  Level FlightAware
08:01AM 38.2770 20.0020 109° East 513 590 36,900  Level FlightAware
08:01AM 38.2440 20.1210 109° East 512 589 36,900  Level FlightAware
08:02AM 38.2170 20.2220 109° East 513 590 36,900 60 Level FlightAware
08:02AM 38.1890 20.3240 109° East 516 594 37,000 120 Climbing FlightAware
08:02AM 38.1860 20.3330 113° Southeast 516 594 37,000  Level FlightAware
08:03AM 38.1340 20.5010 111° Southeast 514 592 37,000 -60 Level FlightAware
08:04AM 38.0920 20.6150 115° Southeast 510 587 36,900  Descending FlightAware
08:05AM 38.0500 20.7260 116° Southeast 511 588 37,000  Climbing FlightAware
08:05AM 38.0150 20.8200 115° Southeast 511 588 36,900 -120 Descending FlightAware
08:06AM 37.9840 20.9030 115° Southeast 514 592 36,900  Level FlightAware
08:07AM 37.9380 21.0230 116° Southeast 515 593 36,900 60 Level FlightAware
08:07AM 37.8870 21.1570 116° Southeast 518 596 37,000 60 Climbing FlightAware
08:08AM 37.8540 21.2460 115° Southeast 518 596 37,000  Level FlightAware
08:09AM 37.8230 21.3300 115° Southeast 518 596 37,000  Level FlightAware
08:09AM 37.8030 21.3860 114° Southeast 518 596 37,000  Level FlightAware
08:10AM 37.7610 21.4980 115° Southeast 518 596 37,000  Level FlightAware
08:11AM 37.7300 21.5820 115° Southeast 518 596 37,000 -120 Level FlightAware
08:11AM 37.6620 21.7400 118° Southeast 516 594 36,900  Descending FlightAware
08:12AM 37.6240 21.8390 116° Southeast 516 594 37,000  Climbing FlightAware
08:12AM 37.5870 21.9330 116° Southeast 516 594 36,900 -120 Descending FlightAware
08:13AM 37.5460 22.0380 116° Southeast 515 593 36,900  Level FlightAware
08:13AM 37.5080 22.1340 116° Southeast 515 593 36,900  Level FlightAware
08:14AM 37.4700 22.2310 116° Southeast 513 590 36,900 60 Level FlightAware
08:15AM 37.4390 22.3160 115° Southeast 515 593 37,000  Climbing FlightAware
08:15AM 37.4090 22.4140 111° Southeast 516 594 36,900 -120 Descending FlightAware
08:16AM 37.3800 22.5150 110° East 515 593 36,900  Level FlightAware
08:16AM 37.3510 22.6150 110° East 515 593 36,900 60 Level FlightAware
08:17AM 37.3220 22.7170 110° East 514 592 37,000 60 Climbing FlightAware
08:18AM 37.2950 22.8100 110° East 514 592 37,000 -120 Level FlightAware
08:18AM 37.2610 22.9240 111° Southeast 516 594 36,900 -120 Descending FlightAware
08:19AM 37.2280 23.0330 111° Southeast 516 594 36,900 60 Level FlightAware
08:19AM 37.2000 23.1300 110° East 516 594 37,000  Climbing FlightAware
08:22AM 37.0744 23.4696 115° Southeast  Level Estimated
08:22AM 37.0860 23.5200 115° Southeast 516 594 37,000  Level FlightAware
08:23AM 37.0390 23.6660 112° Southeast 515 593 36,900 -120 Descending FlightAware
08:24AM 37.0030 23.7810 111° Southeast 514 592 36,900  Level FlightAware
08:24AM 36.9720 23.8820 111° Southeast 515 593 36,900  Level FlightAware
08:25AM 36.9290 24.0220 111° Southeast 516 594 36,900 60 Level FlightAware
08:25AM 36.9050 24.1040 110° East 516 594 37,000  Climbing FlightAware
08:26AM 36.8690 24.2140 112° Southeast 516 594 36,900  Descending FlightAware
08:27AM 36.8380 24.3150 111° Southeast 516 594 37,000 60 Climbing FlightAware
08:27AM 36.8070 24.4140 111° Southeast 516 594 37,000  Level FlightAware
08:28AM 36.7790 24.5040 111° Southeast 516 594 37,000 -120 Level FlightAware
08:28AM 36.7430 24.6020 115° Southeast 514 592 36,900  Descending FlightAware
08:29AM 36.7080 24.6980 114° Southeast 514 592 37,000  Climbing FlightAware
08:29AM 36.6740 24.7890 115° Southeast 514 592 36,900  Descending FlightAware
08:30AM 36.6390 24.8850 114° Southeast 515 593 37,000 60 Climbing FlightAware
08:31AM 36.6020 24.9850 115° Southeast 515 593 37,000 -120 Level FlightAware
08:31AM 36.5670 25.0810 114° Southeast 516 594 36,900 -120 Descending FlightAware
08:32AM 36.5360 25.1660 114° Southeast 515 593 36,900  Level FlightAware
08:32AM 36.5000 25.2650 114° Southeast 515 593 36,900  Level FlightAware
08:33AM 36.4650 25.3590 115° Southeast 516 594 36,900  Level FlightAware
08:33AM 36.4320 25.4460 115° Southeast 516 594 36,900 60 Level FlightAware
08:34AM 36.3960 25.5440 115° Southeast 516 594 37,000  Climbing FlightAware
08:35AM 36.3600 25.6410 115° Southeast 516 594 36,900  Descending FlightAware
08:35AM 36.3240 25.7350 115° Southeast 516 594 37,000  Climbing FlightAware
08:36AM 36.2920 25.8220 115° Southeast 517 595 36,900 -120 Descending FlightAware
08:36AM 36.2550 25.9190 115° Southeast 517 595 36,900  Level FlightAware
08:37AM 36.2230 26.0060 114° Southeast 517 595 36,900  Level FlightAware
08:38AM 36.1820 26.1120 116° Southeast 517 595 36,900  Level FlightAware
08:38AM 36.1500 26.1980 115° Southeast 517 595 36,900 60 Level FlightAware
08:39AM 36.1110 26.2990 116° Southeast 516 594 37,000 60 Climbing FlightAware
08:39AM 36.0740 26.3960 115° Southeast 516 594 37,000  Level FlightAware
08:40AM 36.0410 26.4820 115° Southeast 515 593 37,000  Level FlightAware
08:41AM 36.0040 26.5810 115° Southeast 514 592 37,000  Level FlightAware
08:41AM 35.9710 26.6650 116° Southeast 513 590 37,000 -120 Level FlightAware
08:42AM 35.9390 26.7470 116° Southeast 512 589 36,900 -120 Descending FlightAware
08:42AM 35.9010 26.8480 115° Southeast 512 589 36,900  Level FlightAware
08:43AM 35.8690 26.9310 115° Southeast 512 589 36,900  Level FlightAware
08:44AM 35.8280 27.0370 115° Southeast 508 585 36,900  Level FlightAware
08:44AM 35.8010 27.1130 114° Southeast 508 585 36,900  Level FlightAware
08:45AM 35.7700 27.1970 114° Southeast 508 585 36,900  Level FlightAware
08:45AM 35.7410 27.2770 114° Southeast 508 585 36,900  Level FlightAware
08:46AM 35.7120 27.3580 114° Southeast 508 585 36,900  Level FlightAware
08:47AM 35.6830 27.4390 114° Southeast 508 585 36,900  Level FlightAware
08:47AM 35.6530 27.5200 114° Southeast 508 585 36,900  Level FlightAware
08:48AM 35.6230 27.6030 114° Southeast 508 585 36,900  Level FlightAware
08:48AM 35.5950 27.6820 114° Southeast 508 585 36,900  Level FlightAware
08:49AM 35.5660 27.7630 114° Southeast 508 585 36,900  Level FlightAware
08:50AM 35.5360 27.8430 115° Southeast 508 585 36,900  Level FlightAware
08:50AM 35.5070 27.9240 114° Southeast 508 585 36,900  Level FlightAware
08:51AM 35.4780 28.0050 114° Southeast 508 585 36,900  Level FlightAware
08:51AM 35.4480 28.0880 114° Southeast 508 585 36,900  Level FlightAware
08:52AM 35.4190 28.1680 114° Southeast 508 585 36,900  Level FlightAware
08:53AM 35.3890 28.2490 114° Southeast 508 585 36,900  Level FlightAware
08:53AM 35.2410 28.5040 125° Southeast 513 590 36,900  Level FlightAware
08:53AM 35.2010 28.6010 117° Southeast 513 590 36,900 60 Level FlightAware
08:54AM 35.1590 28.7050 116° Southeast 513 590 37,000 60 Climbing FlightAware
08:55AM 35.1270 28.7850 116° Southeast 513 590 37,000  Level FlightAware
08:55AM 35.0950 28.8650 116° Southeast 513 590 37,000  Level FlightAware
08:56AM 35.0620 28.9470 116° Southeast 513 590 37,000  Level FlightAware
08:57AM 35.0290 29.0290 116° Southeast 513 590 37,000  Level FlightAware
08:57AM 34.9980 29.1090 115° Southeast 513 590 37,000 -120 Level FlightAware
08:58AM 34.9120 29.3010 119° Southeast 509 586 36,900 -120 Descending FlightAware
08:59AM 34.8740 29.3920 117° Southeast 508 585 36,900  Level FlightAware
08:59AM 34.8230 29.5100 118° Southeast 508 585 36,900  Level FlightAware
08:59AM 34.8110 29.5390 117° Southeast 508 585 36,900  Level FlightAware
09:01AM 34.7230 29.7600 116° Southeast 508 585 36,900  Level FlightAware
09:02AM 34.6720 29.8720 119° Southeast 507 583 37,000  Climbing FlightAware
09:03AM 34.6120 29.9940 121° Southeast 951 1094 36,900 -120 Descending FlightAware
09:03AM 34.5800 30.0620 120° Southeast 509 586 36,900  Level FlightAware
09:04AM 34.5320 30.1630 120° Southeast 505 581 36,900  Level FlightAware
09:04AM 34.4980 30.2340 120° Southeast 506 582 36,900  Level FlightAware
09:05AM 34.4500 30.3350 120° Southeast 506 582 36,900  Level FlightAware
09:05AM 34.4020 30.4370 120° Southeast 506 582 36,900  Level FlightAware
09:06AM 34.3700 30.5040 120° Southeast 506 582 36,900  Level FlightAware
09:07AM 34.3280 30.5920 120° Southeast 506 582 36,900  Level FlightAware
09:07AM 34.2790 30.6950 120° Southeast 511 588 36,900  Level FlightAware
09:08AM 34.2340 30.7890 120° Southeast 511 588 36,900  Level FlightAware
09:08AM 34.1890 30.8820 120° Southeast 510 587 36,900  Level FlightAware
09:09AM 34.1490 30.9670 120° Southeast 510 587 36,900 60 Level FlightAware
09:10AM 34.1060 31.0540 121° Southeast 509 586 37,000 60 Climbing FlightAware
09:10AM 34.0660 31.1370 120° Southeast 508 585 37,000  Level FlightAware
09:11AM 34.0230 31.2260 120° Southeast 507 583 37,000 -120 Level FlightAware
09:11AM 33.9880 31.2970 121° Southeast 507 583 36,900 -120 Descending FlightAware
09:12AM 33.9420 31.3910 121° Southeast 505 581 36,900 60 Level FlightAware
09:13AM 33.8980 31.4820 120° Southeast 505 581 37,000  Climbing FlightAware
09:13AM 33.8560 31.5680 120° Southeast 505 581 36,900 -120 Descending FlightAware
09:14AM 33.8080 31.6650 121° Southeast 505 581 36,900 60 Level FlightAware
09:14AM 33.7660 31.7510 120° Southeast 505 581 37,000  Climbing FlightAware
09:15AM 33.7230 31.8370 121° Southeast 504 580 36,900 -120 Descending FlightAware
09:16AM 33.6850 31.9140 121° Southeast 504 580 36,900  Level FlightAware
09:16AM 33.6390 32.0070 121° Southeast 503 579 36,900  Level FlightAware
09:17AM 33.5970 32.0920 121° Southeast 503 579 36,900  Level FlightAware
09:17AM 33.5590 32.1680 121° Southeast 507 583 36,900  Level FlightAware
09:18AM 33.5130 32.2600 121° Southeast 509 586 36,900  Level FlightAware
09:19AM 33.4640 32.3570 121° Southeast 510 587 36,900  Level FlightAware
09:19AM 33.4200 32.4460 121° Southeast 511 588 36,900  Level FlightAware
09:19AM 33.4070 32.4700 123° Southeast 511 588 36,900 -1,200 Level FlightAware
09:20AM 33.3320 32.6180 121° Southeast 513 590 35,400 -1,920 Descending FlightAware
09:21AM 33.2780 32.7240 121° Southeast 525 604 33,600 -2,700 Descending FlightAware
09:22AM 33.2060 32.8670 121° Southeast 534 615 31,100 -2,760 Descending FlightAware
09:22AM 33.1960 32.8860 122° Southeast 534 615 30,800 -2,220 Descending FlightAware
09:23AM 33.1180 33.0400 121° Southeast 534 615 28,600 -2,280 Descending FlightAware
09:24AM 33.0690 33.1350 122° Southeast 526 605 27,000 -2,400 Descending FlightAware
09:24AM 33.0290 33.2120 122° Southeast 509 586 25,800 -1,080 Descending FlightAware
09:25AM 32.9900 33.2890 121° Southeast 509 586 25,800 -2,340 Level FlightAware
09:26AM 32.9460 33.3720 122° Southeast 472 543 23,100 -2,280 Descending FlightAware
09:26AM 32.9000 33.4630 121° Southeast 469 540 22,900 -2,040 Descending FlightAware
09:27AM 32.8560 33.5450 123° Southeast 435 501 20,400 -3,060 Descending FlightAware
09:27AM 32.8180 33.6170 122° Southeast 420 483 19,300 -1,860 Descending FlightAware
09:28AM 32.7860 33.6790 122° Southeast 409 471 18,300 -1,800 Descending FlightAware
09:29AM 32.7500 33.7470 122° Southeast 399 459 17,300 -1,800 Descending FlightAware
09:29AM 32.7150 33.8140 122° Southeast 387 445 16,200 -1,800 Descending FlightAware
09:30AM 32.6870 33.8680 122° Southeast 379 436 15,300 -1,560 Descending FlightAware
09:30AM 32.6540 33.9300 122° Southeast 365 420 14,500 -1,380 Descending FlightAware
09:31AM 32.6240 33.9870 122° Southeast 354 407 13,700 -1,380 Descending FlightAware
09:32AM 32.5910 34.0490 122° Southeast 326 375 12,900 -1,260 Descending FlightAware
09:32AM 32.5650 34.0990 122° Southeast 297 342 12,200 -1,200 Descending FlightAware
09:33AM 32.5350 34.1450 128° Southeast 309 356 11,500 -1,260 Descending FlightAware
09:33AM 32.5230 34.1560 142° Southeast 312 359 11,200 -660 Descending FlightAware
09:33AM 32.4780 34.1770 159° South 314 361 11,000 -180 Descending FlightAware
09:34AM 32.4360 34.1960 159° South 314 361 11,000  Level FlightAware
09:35AM 32.3950 34.2160 158° South 314 361 11,000 -1,740 Level FlightAware
09:37AM 32.2705 34.4950 132° Southeast  Level FlightAware Approximate
09:37AM 32.3110 34.3750 132° Southeast 6,400  Level FlightAware
09:37AM 32.2900 34.4380 112° Southeast 283 326 5,400 -840 Descending FlightAware
09:38AM 32.2760 34.4690 118° Southeast 283 326 5,400 -420 Level FlightAware
09:38AM 32.2580 34.4980 126° Southeast 283 326 5,100 -420 Descending FlightAware
09:39AM 32.2440 34.5310 117° Southeast 283 326 5,100  Level FlightAware
09:39AM 32.2580 34.4980 297° West 285 328 5,100  Level FlightAware
09:39AM 32.2060 34.5980 122° Southeast 262 302 5,100  Level FlightAware
09:40AM 32.2200 34.5720 302° West 241 277 5,100  Level FlightAware
09:41AM 32.1550 34.6880 123° Southeast 241 277 5,100  Level FlightAware
09:41AM 32.1440 34.7080 123° Southeast 240 276 5,100 120 Level FlightAware
09:42AM 32.1300 34.7340 122° Southeast 241 277 5,200  Climbing FlightAware
09:42AM 32.1160 34.7530 131° Southeast 228 262 5,100 -540 Descending FlightAware
09:42AM 32.1110 34.7580 140° Southeast 223 257 5,000 -660 Descending FlightAware
09:43AM 32.0810 34.7910 137° Southeast 205 236 4,600 -480 Descending FlightAware
09:43AM 32.0740 34.7990 136° Southeast 205 236 4,600 -480 Level FlightAware
09:43AM 32.0550 34.8210 136° Southeast 199 229 4,300 -1,080 Descending FlightAware
09:44AM 32.0430 34.8350 135° Southeast 194 223 3,800 -1,500 Descending FlightAware
09:44AM 32.0370 34.8430 131° Southeast 187 215 3,600 -1,500 Descending FlightAware
09:44AM 32.0350 34.8490 111° Southeast 183 211 3,400 -1,680 Descending FlightAware
09:44AM 32.0340 34.8540 103° East 181 208 3,300 -840 Descending FlightAware
09:44AM 32.0380 34.8760 78° East 172 198 3,000 -840 Descending FlightAware
09:45AM 32.0410 34.8940 79° East 173 199 2,700 -540 Descending FlightAware
09:45AM 32.0490 34.9260 74° East 175 201 2,500 -360 Descending FlightAware
09:48AM 32.0095 34.8769 131° Southeast  Level Estimated